createdAt,value
2022-10-28T00:01:06.910Z,14.21
2022-10-28T00:03:33.537Z,14.13
2022-10-28T00:06:05.553Z,14.08
2022-10-28T00:08:33.167Z,14.09
2022-10-28T00:11:08.065Z,14.08
2022-10-28T00:13:35.350Z,14.08
2022-10-28T00:16:08.047Z,14.09
2022-10-28T00:18:34.844Z,14.10
2022-10-28T00:21:09.599Z,14.08
2022-10-28T00:23:36.388Z,14.09
2022-10-28T00:26:12.135Z,14.05
2022-10-28T00:28:46.673Z,13.92
2022-10-28T00:31:16.597Z,13.87
2022-10-28T00:33:43.241Z,13.78
2022-10-28T00:36:11.695Z,13.64
2022-10-28T00:38:38.617Z,13.48
2022-10-28T00:41:05.854Z,13.29
2022-10-28T00:43:35.266Z,13.17
2022-10-28T00:46:03.280Z,13.04
2022-10-28T00:48:30.182Z,12.97
2022-10-28T00:50:57.021Z,12.91
2022-10-28T00:53:28.357Z,12.94
2022-10-28T00:55:56.793Z,12.91
2022-10-28T00:58:26.036Z,12.94
2022-10-28T01:00:53.055Z,12.99
2022-10-28T01:03:19.531Z,12.99
2022-10-28T01:05:48.493Z,12.98
2022-10-28T01:08:15.974Z,13.02
2022-10-28T01:10:56.482Z,13.00
2022-10-28T01:13:34.843Z,12.97
2022-10-28T01:16:17.102Z,13.01
2022-10-28T01:19:05.098Z,13.01
2022-10-28T01:21:40.384Z,13.13
2022-10-28T01:24:17.304Z,13.32
2022-10-28T01:27:14.625Z,13.40
2022-10-28T01:29:48.630Z,13.35
2022-10-28T01:32:56.900Z,13.35
2022-10-28T01:38:11.327Z,13.24
2022-10-28T01:41:08.219Z,13.14
2022-10-28T01:43:46.553Z,12.97
2022-10-28T01:46:24.972Z,12.93
2022-10-28T01:48:57.268Z,12.89
2022-10-28T01:51:43.906Z,12.91
2022-10-28T01:54:13.587Z,13.08
2022-10-28T01:56:42.811Z,13.15
2022-10-28T01:59:17.165Z,13.22
2022-10-28T02:01:43.808Z,13.16
2022-10-28T02:04:10.446Z,13.18
2022-10-28T02:06:38.798Z,13.15
2022-10-28T02:09:19.497Z,13.14
2022-10-28T02:12:18.730Z,13.29
2022-10-28T02:15:00.429Z,13.28
2022-10-28T02:17:43.625Z,13.14
2022-10-28T02:20:26.238Z,13.05
2022-10-28T02:22:59.360Z,13.01
2022-10-28T02:25:34.475Z,12.94
2022-10-28T02:28:14.285Z,12.92
2022-10-28T02:30:40.741Z,12.91
2022-10-28T02:33:12.329Z,12.83
2022-10-28T02:35:52.213Z,12.80
2022-10-28T02:38:25.791Z,12.79
2022-10-28T02:40:56.628Z,12.85
2022-10-28T02:43:25.428Z,12.83
2022-10-28T02:45:56.994Z,12.84
2022-10-28T02:48:41.791Z,12.90
2022-10-28T02:51:21.836Z,12.98
2022-10-28T02:54:04.318Z,13.05
2022-10-28T02:56:37.726Z,13.21
2022-10-28T02:59:08.262Z,13.26
2022-10-28T03:01:34.821Z,13.28
2022-10-28T03:04:01.376Z,13.20
2022-10-28T03:06:27.817Z,13.20
2022-10-28T03:08:54.357Z,13.19
2022-10-28T03:11:20.971Z,13.21
2022-10-28T03:13:47.694Z,13.24
2022-10-28T03:16:14.179Z,13.26
2022-10-28T03:18:40.682Z,13.20
2022-10-28T03:21:07.245Z,13.11
2022-10-28T03:23:33.713Z,12.99
2022-10-28T03:26:00.219Z,12.94
2022-10-28T03:28:26.763Z,12.89
2022-10-28T03:30:53.236Z,12.86
2022-10-28T03:33:19.675Z,12.83
2022-10-28T03:35:46.123Z,12.97
2022-10-28T03:38:12.600Z,13.15
2022-10-28T03:40:39.072Z,13.19
2022-10-28T03:43:05.711Z,13.21
2022-10-28T03:45:32.195Z,13.21
2022-10-28T03:47:58.658Z,13.17
2022-10-28T03:50:25.378Z,13.20
2022-10-28T03:52:51.878Z,13.14
2022-10-28T03:55:18.344Z,13.17
2022-10-28T03:57:44.862Z,13.23
2022-10-28T04:00:11.883Z,13.38
2022-10-28T04:02:38.343Z,13.45
2022-10-28T04:05:05.226Z,13.50
2022-10-28T04:07:31.859Z,13.47
2022-10-28T04:09:58.360Z,13.39
2022-10-28T04:12:24.906Z,13.37
2022-10-28T04:14:51.424Z,13.35
2022-10-28T04:17:17.871Z,13.32
2022-10-28T04:19:44.337Z,13.31
2022-10-28T04:22:10.852Z,13.26
2022-10-28T04:24:37.351Z,13.25
2022-10-28T04:27:03.885Z,13.37
2022-10-28T04:29:31.441Z,13.49
2022-10-28T04:31:58.136Z,13.48
2022-10-28T04:34:24.738Z,13.48
2022-10-28T04:36:51.329Z,13.51
2022-10-28T04:39:17.890Z,13.47
2022-10-28T04:41:44.450Z,13.51
2022-10-28T04:44:10.978Z,13.50
2022-10-28T04:46:37.463Z,13.50
2022-10-28T04:49:04.096Z,13.51
2022-10-28T04:51:30.621Z,13.46
2022-10-28T04:53:57.080Z,13.37
2022-10-28T04:56:23.570Z,13.31
2022-10-28T04:58:50.026Z,13.26
2022-10-28T05:01:16.626Z,13.15
2022-10-28T05:03:43.210Z,13.14
2022-10-28T05:06:09.750Z,13.10
2022-10-28T05:08:36.343Z,13.10
2022-10-28T05:11:03.038Z,13.10
2022-10-28T05:13:29.493Z,13.03
2022-10-28T05:15:56.016Z,13.03
2022-10-28T05:18:22.494Z,13.05
2022-10-28T05:20:52.816Z,13.04
2022-10-28T05:23:19.261Z,13.03
2022-10-28T05:25:45.707Z,12.96
2022-10-28T05:28:12.174Z,12.94
2022-10-28T05:30:38.810Z,12.79
2022-10-28T05:33:05.746Z,12.80
2022-10-28T05:35:32.751Z,12.78
2022-10-28T05:37:59.600Z,12.77
2022-10-28T05:40:26.059Z,12.83
2022-10-28T05:42:55.155Z,12.86
2022-10-28T05:45:22.002Z,12.87
2022-10-28T05:47:49.026Z,12.89
2022-10-28T05:50:18.548Z,12.84
2022-10-28T05:52:46.934Z,12.77
2022-10-28T05:55:13.656Z,12.81
2022-10-28T05:57:41.756Z,12.95
2022-10-28T06:00:11.998Z,12.86
2022-10-28T06:02:38.532Z,12.93
2022-10-28T06:05:05.375Z,12.92
2022-10-28T06:07:31.952Z,12.88
2022-10-28T06:09:58.460Z,12.93
2022-10-28T06:12:23.458Z,12.93
2022-10-28T06:14:50.081Z,12.97
2022-10-28T06:17:16.597Z,12.95
2022-10-28T06:19:43.915Z,13.02
2022-10-28T06:22:11.480Z,13.02
2022-10-28T06:24:38.599Z,13.02
2022-10-28T06:27:05.735Z,12.99
2022-10-28T06:29:33.192Z,13.08
2022-10-28T06:31:59.859Z,13.13
2022-10-28T06:34:26.411Z,13.08
2022-10-28T06:36:53.084Z,13.13
2022-10-28T06:39:19.649Z,13.19
2022-10-28T06:41:46.214Z,13.22
2022-10-28T06:44:12.654Z,13.32
2022-10-28T06:46:40.668Z,13.41
2022-10-28T06:49:09.093Z,13.46
2022-10-28T06:51:35.590Z,13.48
2022-10-28T06:54:02.274Z,13.55
2022-10-28T06:56:28.787Z,13.56
2022-10-28T06:58:55.590Z,13.64
2022-10-28T07:01:22.703Z,13.65
2022-10-28T07:03:49.613Z,13.66
2022-10-28T07:06:17.108Z,13.64
2022-10-28T07:08:43.630Z,13.65
2022-10-28T07:11:10.238Z,13.59
2022-10-28T07:13:36.693Z,13.59
2022-10-28T07:16:05.259Z,13.61
2022-10-28T07:18:32.051Z,13.67
2022-10-28T07:21:00.056Z,13.71
2022-10-28T07:23:28.816Z,13.71
2022-10-28T07:25:56.344Z,13.79
2022-10-28T07:28:24.427Z,13.89
2022-10-28T07:30:51.023Z,13.96
2022-10-28T07:33:17.919Z,14.09
2022-10-28T07:35:44.441Z,14.17
2022-10-28T07:38:11.338Z,14.30
2022-10-28T07:40:38.302Z,14.40
2022-10-28T07:43:04.753Z,14.46
2022-10-28T07:45:31.256Z,14.55
2022-10-28T07:47:57.778Z,14.63
2022-10-28T07:50:24.325Z,14.69
2022-10-28T07:52:50.918Z,14.76
2022-10-28T07:55:17.700Z,14.80
2022-10-28T07:57:44.208Z,14.85
2022-10-28T08:00:11.041Z,14.91
2022-10-28T08:02:38.645Z,14.94
2022-10-28T08:05:05.936Z,14.96
2022-10-28T08:07:34.864Z,15.02
2022-10-28T08:10:04.763Z,15.08
2022-10-28T08:12:31.373Z,15.12
2022-10-28T08:14:57.932Z,15.21
2022-10-28T08:17:24.850Z,15.30
2022-10-28T08:19:51.336Z,15.40
2022-10-28T08:22:18.057Z,15.50
2022-10-28T08:24:44.601Z,15.61
2022-10-28T08:27:11.072Z,15.69
2022-10-28T08:29:37.522Z,15.77
2022-10-28T08:32:04.013Z,15.87
2022-10-28T08:34:31.364Z,15.92
2022-10-28T08:36:58.143Z,16.01
2022-10-28T08:39:24.662Z,16.07
2022-10-28T08:42:32.855Z,16.24
2022-10-28T08:45:17.903Z,16.34
2022-10-28T08:50:40.950Z,16.53
2022-10-28T08:53:16.422Z,16.62
2022-10-28T08:55:46.954Z,16.64
2022-10-28T08:58:21.907Z,16.79
2022-10-28T09:00:54.125Z,16.89
2022-10-28T09:03:22.756Z,17.03
2022-10-28T09:05:54.082Z,17.18
2022-10-28T09:08:26.005Z,17.37
2022-10-28T09:10:58.549Z,17.51
2022-10-28T09:13:46.373Z,17.65
2022-10-28T09:16:45.842Z,17.76
2022-10-28T09:19:35.940Z,17.91
2022-10-28T09:22:20.723Z,18.06
2022-10-28T09:25:01.003Z,18.16
2022-10-28T09:27:39.385Z,18.30
2022-10-28T09:30:06.287Z,18.49
2022-10-28T09:32:41.280Z,18.65
2022-10-28T09:35:18.020Z,18.90
2022-10-28T09:38:04.840Z,19.12
2022-10-28T09:40:35.100Z,19.26
2022-10-28T09:43:16.526Z,19.44
2022-10-28T09:45:48.168Z,19.58
2022-10-28T09:48:26.831Z,19.63
2022-10-28T09:50:55.838Z,19.66
2022-10-28T09:53:42.829Z,19.70
2022-10-28T09:56:09.774Z,19.69
2022-10-28T09:58:42.264Z,19.70
2022-10-28T10:01:08.831Z,19.70
2022-10-28T10:03:35.612Z,19.66
2022-10-28T10:06:16.974Z,19.68
2022-10-28T10:08:45.199Z,19.75
2022-10-28T10:11:39.393Z,19.83
2022-10-28T10:14:13.572Z,20.01
2022-10-28T10:16:52.808Z,20.06
2022-10-28T10:19:19.324Z,20.24
2022-10-28T10:21:48.343Z,20.38
2022-10-28T10:24:35.434Z,20.29
2022-10-28T10:27:10.781Z,20.33
2022-10-28T10:29:44.125Z,20.38
2022-10-28T10:32:18.316Z,20.24
2022-10-28T10:34:49.896Z,20.15
2022-10-28T10:37:21.201Z,20.00
2022-10-28T10:40:07.293Z,19.93
2022-10-28T10:42:39.190Z,20.01
2022-10-28T10:45:18.863Z,20.02
2022-10-28T10:47:45.373Z,19.95
2022-10-28T10:50:22.556Z,19.94
2022-10-28T10:52:52.453Z,19.90
2022-10-28T10:55:38.737Z,19.93
2022-10-28T10:58:14.694Z,20.00
2022-10-28T11:00:47.740Z,20.07
2022-10-28T11:03:48.349Z,20.07
2022-10-28T11:06:26.602Z,20.17
2022-10-28T11:09:05.363Z,20.43
2022-10-28T11:11:36.497Z,20.52
2022-10-28T11:14:08.934Z,20.48
2022-10-28T11:16:53.912Z,20.46
2022-10-28T11:19:34.656Z,20.38
2022-10-28T11:22:09.892Z,20.43
2022-10-28T11:24:57.850Z,20.58
2022-10-28T11:27:39.810Z,20.86
2022-10-28T11:30:13.822Z,21.21
2022-10-28T11:33:28.830Z,21.44
2022-10-28T11:36:16.308Z,21.78
2022-10-28T11:38:58.134Z,22.00
2022-10-28T11:41:30.460Z,21.69
2022-10-28T11:44:05.197Z,21.68
2022-10-28T11:46:36.833Z,21.87
2022-10-28T11:49:44.559Z,22.23
2022-10-28T11:52:49.910Z,22.21
2022-10-28T11:55:39.569Z,22.40
2022-10-28T11:58:43.165Z,22.51
2022-10-28T12:01:35.857Z,22.67
2022-10-28T12:04:48.905Z,22.44
2022-10-28T12:07:37.001Z,22.71
2022-10-28T12:10:22.413Z,22.80
2022-10-28T12:13:06.837Z,22.66
2022-10-28T12:15:43.069Z,22.67
2022-10-28T12:18:09.697Z,22.51
2022-10-28T12:21:07.098Z,22.44
2022-10-28T12:23:37.975Z,22.42
2022-10-28T12:26:08.532Z,22.27
2022-10-28T12:28:43.905Z,22.42
2022-10-28T12:31:26.525Z,22.40
2022-10-28T12:34:00.973Z,22.21
2022-10-28T12:36:41.577Z,22.19
2022-10-28T12:39:26.838Z,22.24
2022-10-28T12:42:00.672Z,22.35
2022-10-28T12:44:28.329Z,22.16
2022-10-28T12:47:05.187Z,21.96
2022-10-28T12:49:56.307Z,22.00
2022-10-28T12:52:43.839Z,22.06
2022-10-28T12:55:13.064Z,22.01
2022-10-28T12:57:45.818Z,22.23
2022-10-28T13:00:23.544Z,22.26
2022-10-28T13:03:01.500Z,22.31
2022-10-28T13:05:37.572Z,22.17
2022-10-28T13:08:07.126Z,22.07
2022-10-28T13:11:21.691Z,21.92
2022-10-28T13:13:48.133Z,21.90
2022-10-28T13:16:35.955Z,21.89
2022-10-28T13:19:23.471Z,21.74
2022-10-28T13:21:57.412Z,21.65
2022-10-28T13:24:32.710Z,21.54
2022-10-28T13:27:03.596Z,21.41
2022-10-28T13:29:33.415Z,21.21
2022-10-28T13:32:00.418Z,21.10
2022-10-28T13:34:37.060Z,21.08
2022-10-28T13:37:06.072Z,21.05
2022-10-28T13:39:46.450Z,20.95
2022-10-28T13:42:12.824Z,20.92
2022-10-28T13:44:49.957Z,20.84
2022-10-28T13:47:16.423Z,20.81
2022-10-28T13:50:04.539Z,20.75
2022-10-28T13:52:31.846Z,20.68
2022-10-28T13:54:58.949Z,20.63
2022-10-28T13:57:35.702Z,20.77
2022-10-28T14:00:07.054Z,20.75
2022-10-28T14:02:44.098Z,20.78
2022-10-28T14:05:13.793Z,20.71
2022-10-28T14:08:01.316Z,20.64
2022-10-28T14:10:33.061Z,20.62
2022-10-28T14:13:03.432Z,20.65
2022-10-28T14:15:38.857Z,20.70
2022-10-28T14:21:06.853Z,20.64
2022-10-28T14:23:33.259Z,20.59
2022-10-28T14:26:04.606Z,20.48
2022-10-28T14:28:31.207Z,20.51
2022-10-28T14:31:12.691Z,20.45
2022-10-28T14:34:04.708Z,20.38
2022-10-28T14:36:49.806Z,20.33
2022-10-28T14:39:45.290Z,20.27
2022-10-28T14:42:30.759Z,20.24
2022-10-28T14:45:30.662Z,20.26
2022-10-28T14:48:24.812Z,20.18
2022-10-28T14:50:52.707Z,20.05
2022-10-28T14:53:32.056Z,19.98
2022-10-28T14:56:09.582Z,19.90
2022-10-28T14:58:44.256Z,19.84
2022-10-28T15:01:17.168Z,19.82
2022-10-28T15:03:48.180Z,19.75
2022-10-28T15:06:39.217Z,19.70
2022-10-28T15:09:30.365Z,19.65
2022-10-28T15:12:07.592Z,19.58
2022-10-28T15:14:38.958Z,19.54
2022-10-28T15:17:17.774Z,19.40
2022-10-28T15:19:48.373Z,19.14
2022-10-28T15:22:24.224Z,18.97
2022-10-28T15:25:14.711Z,18.85
2022-10-28T15:27:43.228Z,18.69
2022-10-28T15:30:15.912Z,18.60
2022-10-28T15:32:42.401Z,18.52
2022-10-28T15:35:26.991Z,18.43
2022-10-28T15:37:55.022Z,18.27
2022-10-28T15:40:33.392Z,18.16
2022-10-28T15:43:07.382Z,18.05
2022-10-28T15:45:41.344Z,17.98
2022-10-28T15:48:14.605Z,17.88
2022-10-28T15:50:41.626Z,17.82
2022-10-28T15:53:11.037Z,17.78
2022-10-28T15:58:33.467Z,17.70
2022-10-28T16:01:00.053Z,17.60
2022-10-28T16:03:47.079Z,17.59
2022-10-28T16:06:31.697Z,17.48
2022-10-28T16:09:02.665Z,17.42
2022-10-28T16:11:30.921Z,17.34
2022-10-28T16:13:58.328Z,17.33
2022-10-28T16:16:28.122Z,17.30
2022-10-28T16:19:29.986Z,17.20
2022-10-28T16:21:56.513Z,17.04
2022-10-28T16:24:23.066Z,16.90
2022-10-28T16:26:49.559Z,16.73
2022-10-28T16:29:15.967Z,16.58
2022-10-28T16:31:42.592Z,16.42
2022-10-28T16:34:14.646Z,16.27
2022-10-28T16:36:41.132Z,16.15
2022-10-28T16:39:16.328Z,16.02
2022-10-28T16:41:42.842Z,15.96
2022-10-28T16:44:16.857Z,15.98
2022-10-28T16:46:43.447Z,15.86
2022-10-28T16:49:09.903Z,15.78
2022-10-28T16:51:36.489Z,15.67
2022-10-28T16:54:03.043Z,15.71
2022-10-28T16:56:29.487Z,15.63
2022-10-28T16:58:55.908Z,15.62
2022-10-28T17:01:22.812Z,15.59
2022-10-28T17:03:49.388Z,15.57
2022-10-28T17:06:15.912Z,15.51
2022-10-28T17:09:02.539Z,15.44
2022-10-28T17:11:28.958Z,15.37
2022-10-28T17:13:55.412Z,15.28
2022-10-28T17:16:22.027Z,15.25
2022-10-28T17:18:51.279Z,15.17
2022-10-28T17:21:18.722Z,15.13
2022-10-28T17:23:45.231Z,15.09
2022-10-28T17:26:11.740Z,15.07
2022-10-28T17:28:38.272Z,15.00
2022-10-28T17:31:06.522Z,14.94
2022-10-28T17:33:33.430Z,14.83
2022-10-28T17:36:05.895Z,14.75
2022-10-28T17:38:32.523Z,14.67
2022-10-28T17:40:59.087Z,14.61
2022-10-28T17:43:25.633Z,14.53
2022-10-28T17:45:52.329Z,14.44
2022-10-28T17:48:18.801Z,14.37
2022-10-28T17:50:53.824Z,14.28
2022-10-28T17:53:21.866Z,14.24
2022-10-28T17:55:58.369Z,14.21
2022-10-28T17:58:25.211Z,14.17
2022-10-28T18:01:01.997Z,14.17
2022-10-28T18:03:32.734Z,14.16
2022-10-28T18:06:03.853Z,14.08
2022-10-28T18:08:39.451Z,14.02
2022-10-28T18:11:07.936Z,13.94
2022-10-28T18:13:39.081Z,13.85
2022-10-28T18:16:06.502Z,13.80
2022-10-28T18:18:37.444Z,13.73
2022-10-28T18:21:11.028Z,13.71
2022-10-28T18:23:37.775Z,13.70
2022-10-28T18:26:04.206Z,13.71
2022-10-28T18:28:32.005Z,13.73
2022-10-28T18:31:07.535Z,13.81
2022-10-28T18:33:35.218Z,13.85
2022-10-28T18:36:04.438Z,13.89
2022-10-28T18:38:31.614Z,13.94
2022-10-28T18:40:58.279Z,13.88
2022-10-28T18:43:24.783Z,13.78
2022-10-28T18:45:51.964Z,13.72
2022-10-28T18:48:18.804Z,13.63
2022-10-28T18:50:56.746Z,13.50
2022-10-28T18:53:23.987Z,13.47
2022-10-28T18:55:50.472Z,13.45
2022-10-28T18:58:17.691Z,13.52
2022-10-28T19:00:44.337Z,13.53
2022-10-28T19:03:19.495Z,13.56
2022-10-28T19:05:46.272Z,13.63
2022-10-28T19:08:12.980Z,13.68
2022-10-28T19:10:39.485Z,13.69
2022-10-28T19:13:06.551Z,13.63
2022-10-28T19:15:33.112Z,13.50
2022-10-28T19:17:59.581Z,13.52
2022-10-28T19:20:26.087Z,13.69
2022-10-28T19:22:52.880Z,13.80
2022-10-28T19:25:19.735Z,13.92
2022-10-28T19:27:46.187Z,13.92
2022-10-28T19:30:13.705Z,13.79
2022-10-28T19:32:40.654Z,13.75
2022-10-28T19:35:07.457Z,13.85
2022-10-28T19:37:35.110Z,13.89
2022-10-28T19:40:01.817Z,13.87
2022-10-28T19:42:28.306Z,13.79
2022-10-28T19:44:55.777Z,13.71
2022-10-28T19:47:22.352Z,13.67
2022-10-28T19:49:48.779Z,13.61
2022-10-28T19:52:15.254Z,13.54
2022-10-28T19:54:41.824Z,13.43
2022-10-28T19:57:08.402Z,13.41
2022-10-28T19:59:34.939Z,13.36
2022-10-28T20:02:01.429Z,13.35
2022-10-28T20:04:27.987Z,13.37
2022-10-28T20:06:54.653Z,13.37
2022-10-28T20:09:25.063Z,13.33
2022-10-28T20:11:54.482Z,13.37
2022-10-28T20:14:21.022Z,13.47
2022-10-28T20:16:48.910Z,13.62
2022-10-28T20:19:15.390Z,13.67
2022-10-28T20:21:41.886Z,13.66
2022-10-28T20:24:08.906Z,13.60
2022-10-28T20:26:37.137Z,13.49
2022-10-28T20:29:06.520Z,13.36
2022-10-28T20:31:33.192Z,13.26
2022-10-28T20:34:03.485Z,13.23
2022-10-28T20:36:38.969Z,13.23
2022-10-28T20:39:12.525Z,13.22
2022-10-28T20:41:40.483Z,13.32
2022-10-28T20:44:07.694Z,13.30
2022-10-28T20:46:34.837Z,13.37
2022-10-28T20:49:01.971Z,13.36
2022-10-28T20:51:31.136Z,13.28
2022-10-28T20:53:58.494Z,13.25
2022-10-28T20:56:30.199Z,13.17
2022-10-28T20:58:57.936Z,13.11
2022-10-28T21:01:29.920Z,13.06
2022-10-28T21:04:00.360Z,13.00
2022-10-28T21:06:28.043Z,12.99
2022-10-28T21:08:55.063Z,12.92
2022-10-28T21:11:23.433Z,12.84
2022-10-28T21:13:52.479Z,12.82
2022-10-28T21:16:20.395Z,12.81
2022-10-28T21:18:47.539Z,12.81
2022-10-28T21:21:14.385Z,12.77
2022-10-28T21:23:41.110Z,12.70
2022-10-28T21:26:08.355Z,12.64
2022-10-28T21:28:35.947Z,12.62
2022-10-28T21:31:10.897Z,12.59
2022-10-28T21:33:38.480Z,12.62
2022-10-28T21:36:08.096Z,12.57
2022-10-28T21:38:35.815Z,12.53
2022-10-28T21:41:08.129Z,12.53
2022-10-28T21:43:36.867Z,12.52
2022-10-28T21:46:03.718Z,12.53
2022-10-28T21:48:31.833Z,12.51
2022-10-28T21:51:02.216Z,12.50
2022-10-28T21:53:32.100Z,12.49
2022-10-28T21:56:04.778Z,12.55
2022-10-28T21:58:31.838Z,12.57
2022-10-28T22:01:10.480Z,12.66
2022-10-28T22:03:37.325Z,12.77
2022-10-28T22:06:04.534Z,12.79
2022-10-28T22:08:31.163Z,12.79
2022-10-28T22:11:09.841Z,12.87
2022-10-28T22:13:36.950Z,12.86
2022-10-28T22:16:06.001Z,12.94
2022-10-28T22:18:35.041Z,12.91
2022-10-28T22:21:13.347Z,12.86
2022-10-28T22:23:40.079Z,12.87
2022-10-28T22:26:09.076Z,12.84
2022-10-28T22:28:35.693Z,12.82
2022-10-28T22:31:05.025Z,12.81
2022-10-28T22:33:31.501Z,12.85
2022-10-28T22:36:04.086Z,12.89
2022-10-28T22:38:30.696Z,12.89
2022-10-28T22:41:03.036Z,12.94
2022-10-28T22:43:29.764Z,12.86
2022-10-28T22:45:58.066Z,12.85
2022-10-28T22:48:24.787Z,12.74
2022-10-28T22:50:51.901Z,12.65
2022-10-28T22:53:18.682Z,12.60
2022-10-28T22:55:46.663Z,12.58
2022-10-28T22:58:13.329Z,12.58
2022-10-28T23:00:39.785Z,12.57
2022-10-28T23:03:06.295Z,12.55
2022-10-28T23:05:32.823Z,12.55
2022-10-28T23:08:01.832Z,12.56
2022-10-28T23:10:28.885Z,12.55
2022-10-28T23:12:56.982Z,12.60
2022-10-28T23:15:24.241Z,12.65
2022-10-28T23:17:51.875Z,12.65
2022-10-28T23:20:23.819Z,12.69
2022-10-28T23:22:50.364Z,12.69
2022-10-28T23:25:17.124Z,12.73
2022-10-28T23:27:44.313Z,12.72
2022-10-28T23:30:12.973Z,12.71
2022-10-28T23:32:39.902Z,12.64
2022-10-28T23:35:07.649Z,12.49
2022-10-28T23:37:34.202Z,12.35
2022-10-28T23:40:00.791Z,12.22
2022-10-28T23:42:27.370Z,12.10
2022-10-28T23:44:53.814Z,12.00
2022-10-28T23:47:20.296Z,11.91
2022-10-28T23:49:46.789Z,11.80
2022-10-28T23:52:13.274Z,11.67
2022-10-28T23:54:39.712Z,11.55
2022-10-28T23:57:06.173Z,11.50
2022-10-28T23:59:32.626Z,11.48
